Strona główna
METAR-TAF:

METAR-TAF

Lotnisko :

Port lotniczy Ipoh

Ipoh, Malezja

Szerokość geograficzna: 04-34-09N, Długość geograficzna: 101-05-35E, wysokość: 40 m

Aktualna obserwacja pogody

Raport powstał 1 godzina i 8 minut temu, godzina 20:00 UTC
Wiatr 4 kt od północno-północny wschód, zmienny między północ i północny wschód
Temperatura 27°C
Wilgotność 89%
Ciśnienie 1010 hPa
Widzialność: 8000 m
Rozproszone chmury na wysokości 2800 ft

METAR: WMKI 062000Z 02004KT 350V050 8000 SCT028 27/25 Q1010

czas: 05:08 (21:08 UTC)

Prognoza

Raport powstał 4 godziny i 8 minut temu, godzina 17:00 UTC
Prognoza ważna od 06 godzina 18 UTC do 07 godzina 18 UTC
Wiatr 3 kt z kierunków zmiennych
Widzialność: 8000 m
Mało chmury na wysokości 3000 ft
Przejściowo
od 07 godzina 07 UTC do 07 godzina 12 UTC
Wiatr 10 kt od południowo-południowy zachód
Mało chmury na wysokości 1700 ft, Cumulonimbus.
burza

TAF: WMKI 061700Z 0618/0718 VRB03KT 8000 FEW030 TEMPO 0707/0712 21010KT TS FEW017CB

Obserwacja i prognoza pogody dla ponad 4000 lotnisk (raport METAR i TAF).

Dostępne stacje oznaczono żółtymi i czerwonymi punktami na mapie.

Najedź kursorem aby zobaczyć nazwę stacji.

Kliknij aby zobaczyć obserwacje i prognozy pogody.

Aby zmienić mapę: kliknij na zielony przycisk z czarnym krzyżykiem, aby powiększyć; na zielony przycisk z myślnikiem, aby pomniejszyć; na zielone strzałki, aby przejść do map sąsiednich.


METAR-TAF: